Windsor, PA

1:33 AM EST on January 21, 2017 (GMT -0500)
Laurel Vistas | | Change Station
Active Advisory: Dense Fog Advisory

Elev 807 ft 39.91 °N, 76.58 °W | Updated 10 seconds ago

Fog
Fog
44.2 °F
Feels Like 44 °F
N
0.0
Wind Variable Wind from SSE
Gusts 0.0 mph

Today
High -- | Low -- °F
--% Chance of Precip.
Yesterday
High -- | Low -- °F
Precip. -- in
Pressure 29.90 in
Visibility 0.2 miles
Clouds
Windchill 44 °F
Dew Point 42 °F
Humidity 92%
Rainfall 0.00 in
Snow Depth Not available.
7:22 AM 5:12 PM
Last Quarter, 37% visible
METAR KTHV 210553Z AUTO 00000KT 1/4SM FG VV002 06/06 A2989 RMK AO2 SLP125 T00560056 10056 20050 58003
Pressure 29.90 in
Visibility 0.2 miles
Clouds
Windchill 44 °F
Dew Point 42 °F
Humidity 92%
Rainfall 0.00 in
Snow Depth Not available.
7:22 AM 5:12 PM
Last Quarter, 37% visible
METAR KTHV 210553Z AUTO 00000KT 1/4SM FG VV002 06/06 A2989 RMK AO2 SLP125 T00560056 10056 20050 58003

Get Your Daily Forecast Email!

Thanks for signing up!

Be on the lookout for a verification email in your inbox.

You'll start receiving the daily forecast at 8 AM.

×

10-Day Weather Forecast

Almanac

Astronomy

Jan. 21, 2017 Rise Set
Actual Time
Civil Twilight
Nautical Twilight
Astronomical Twilight
Moon
Length of Visible Light
Length of Day
Tomorrow will be .
, % of the Moon is Illuminated

Today's Extremes

State Highs State Lows

Community

WunderPhotos

Upload Photos

1,962,540 photos uploaded!

WunderBlog® & News

Nearby

Air Quality

  Air Quality AQ Index Pollutant
Not available.

Snow Depth

Station Depth Elevation

Earthquake Activity

City Distance Mag. Time & Date
Minimum magnitude displayed is 2.5.

Coastal Water Temperatures

Place Temperature

Stations

Nearby Weather Stations

Station Location Temp. Windchill Dew Point Humidity Wind Precip. Elev Updated Type
                   

Watches & Warnings

Dense Fog Advisory
Issued: 11:05 PM EST Jan. 20, 2017 – National Weather Service

... Dense fog advisory in effect until 8 am EST Saturday...

The National Weather Service in State College has issued a dense
fog advisory... which is in effect until 8 am EST Saturday.

* Visibilities... one-quarter mile or less at times.

* Timing... overnight through shortly after sunrise Saturday.

* Impacts... poor driving conditions as a result of greatly
reduced and rapidly fluctuating visibility.


Precautionary/preparedness actions...

Motorists are advised to slow down... use low beam headlights and
keep a safe following distance from the vehicle in front of you.
Consider allowing extra time to reach your destination. Go to
weather.Gov/fog for more information on fog safety.



Bl/kf